sensor_id;sensor_type;location;lat;lon;timestamp;P1;durP1;ratioP1;P2;durP2;ratioP2
52102;SDS011;38101;53.126;6.878;2022-10-17T00:01:48;9.90;;;3.97;;
52102;SDS011;38101;53.126;6.878;2022-10-17T00:04:14;10.48;;;4.20;;
52102;SDS011;38101;53.126;6.878;2022-10-17T00:06:40;9.63;;;3.58;;
52102;SDS011;38101;53.126;6.878;2022-10-17T00:09:05;5.95;;;3.40;;
52102;SDS011;38101;53.126;6.878;2022-10-17T00:11:31;8.32;;;3.40;;
52102;SDS011;38101;53.126;6.878;2022-10-17T00:13:57;7.82;;;3.80;;
52102;SDS011;38101;53.126;6.878;2022-10-17T00:16:27;8.13;;;3.33;;
52102;SDS011;38101;53.126;6.878;2022-10-17T00:18:55;8.30;;;3.53;;
52102;SDS011;38101;53.126;6.878;2022-10-17T00:21:21;9.65;;;4.15;;
52102;SDS011;38101;53.126;6.878;2022-10-17T00:23:47;11.25;;;4.38;;
52102;SDS011;38101;53.126;6.878;2022-10-17T00:26:13;8.13;;;4.22;;
52102;SDS011;38101;53.126;6.878;2022-10-17T00:28:40;9.38;;;3.90;;
52102;SDS011;38101;53.126;6.878;2022-10-17T00:31:06;9.00;;;4.30;;
52102;SDS011;38101;53.126;6.878;2022-10-17T00:33:32;8.90;;;4.28;;
52102;SDS011;38101;53.126;6.878;2022-10-17T00:36:32;8.82;;;3.83;;
52102;SDS011;38101;53.126;6.878;2022-10-17T00:38:52;7.70;;;4.25;;
52102;SDS011;38101;53.126;6.878;2022-10-17T00:41:22;6.43;;;3.90;;
52102;SDS011;38101;53.126;6.878;2022-10-17T00:43:50;7.63;;;4.22;;
52102;SDS011;38101;53.126;6.878;2022-10-17T00:46:37;9.18;;;4.30;;
52102;SDS011;38101;53.126;6.878;2022-10-17T00:49:07;7.38;;;4.30;;
52102;SDS011;38101;53.126;6.878;2022-10-17T00:51:37;9.90;;;4.72;;
52102;SDS011;38101;53.126;6.878;2022-10-17T00:54:13;9.00;;;4.30;;
52102;SDS011;38101;53.126;6.878;2022-10-17T00:56:41;8.45;;;4.78;;
52102;SDS011;38101;53.126;6.878;2022-10-17T00:59:08;9.18;;;4.82;;
52102;SDS011;38101;53.126;6.878;2022-10-17T01:01:36;9.45;;;4.60;;
52102;SDS011;38101;53.126;6.878;2022-10-17T01:04:03;9.57;;;4.40;;
52102;SDS011;38101;53.126;6.878;2022-10-17T01:06:29;9.23;;;4.40;;
52102;SDS011;38101;53.126;6.878;2022-10-17T01:08:55;8.73;;;4.20;;
52102;SDS011;38101;53.126;6.878;2022-10-17T01:11:32;7.97;;;4.50;;
52102;SDS011;38101;53.126;6.878;2022-10-17T01:14:15;6.93;;;4.25;;
52102;SDS011;38101;53.126;6.878;2022-10-17T01:16:57;10.02;;;4.70;;
52102;SDS011;38101;53.126;6.878;2022-10-17T01:19:43;7.00;;;4.68;;
52102;SDS011;38101;53.126;6.878;2022-10-17T01:22:22;10.38;;;5.20;;
52102;SDS011;38101;53.126;6.878;2022-10-17T01:25:00;7.57;;;5.65;;
52102;SDS011;38101;53.126;6.878;2022-10-17T01:36:26;8.13;;;5.22;;
52102;SDS011;38101;53.126;6.878;2022-10-17T01:42:00;9.82;;;5.78;;
52102;SDS011;38101;53.126;6.878;2022-10-17T01:44:38;8.80;;;5.85;;
52102;SDS011;38101;53.126;6.878;2022-10-17T01:47:11;10.10;;;5.78;;
52102;SDS011;38101;53.126;6.878;2022-10-17T01:49:41;8.63;;;5.70;;
52102;SDS011;38101;53.126;6.878;2022-10-17T01:52:10;9.88;;;5.93;;
52102;SDS011;38101;53.126;6.878;2022-10-17T01:54:41;7.65;;;5.85;;
52102;SDS011;38101;53.126;6.878;2022-10-17T01:57:20;7.22;;;5.97;;
52102;SDS011;38101;53.126;6.878;2022-10-17T01:59:51;9.40;;;5.80;;
52102;SDS011;38101;53.126;6.878;2022-10-17T02:02:19;10.63;;;6.28;;
52102;SDS011;38101;53.126;6.878;2022-10-17T02:04:46;7.80;;;6.00;;
52102;SDS011;38101;53.126;6.878;2022-10-17T02:07:13;8.80;;;6.25;;
52102;SDS011;38101;53.126;6.878;2022-10-17T02:09:39;6.93;;;6.22;;
52102;SDS011;38101;53.126;6.878;2022-10-17T02:23:59;9.48;;;6.68;;
52102;SDS011;38101;53.126;6.878;2022-10-17T02:29:18;8.27;;;6.75;;
52102;SDS011;38101;53.126;6.878;2022-10-17T02:32:00;10.07;;;7.03;;
52102;SDS011;38101;53.126;6.878;2022-10-17T02:34:36;10.25;;;6.80;;
52102;SDS011;38101;53.126;6.878;2022-10-17T02:37:06;10.75;;;7.13;;
52102;SDS011;38101;53.126;6.878;2022-10-17T02:39:33;10.43;;;7.63;;
52102;SDS011;38101;53.126;6.878;2022-10-17T02:42:02;10.38;;;7.53;;
52102;SDS011;38101;53.126;6.878;2022-10-17T02:44:31;8.00;;;6.78;;
52102;SDS011;38101;53.126;6.878;2022-10-17T02:47:00;9.68;;;7.38;;
52102;SDS011;38101;53.126;6.878;2022-10-17T02:49:35;10.82;;;7.13;;
52102;SDS011;38101;53.126;6.878;2022-10-17T02:52:07;8.32;;;7.40;;
52102;SDS011;38101;53.126;6.878;2022-10-17T02:57:21;10.50;;;8.25;;
52102;SDS011;38101;53.126;6.878;2022-10-17T02:59:53;12.63;;;8.57;;
52102;SDS011;38101;53.126;6.878;2022-10-17T03:02:21;13.02;;;9.05;;
52102;SDS011;38101;53.126;6.878;2022-10-17T03:04:47;18.02;;;11.65;;
52102;SDS011;38101;53.126;6.878;2022-10-17T03:07:12;17.95;;;15.07;;
52102;SDS011;38101;53.126;6.878;2022-10-17T03:09:38;37.30;;;33.45;;
52102;SDS011;38101;53.126;6.878;2022-10-17T03:12:04;44.00;;;39.28;;
52102;SDS011;38101;53.126;6.878;2022-10-17T03:14:29;48.55;;;43.88;;
52102;SDS011;38101;53.126;6.878;2022-10-17T03:16:55;46.53;;;42.13;;
52102;SDS011;38101;53.126;6.878;2022-10-17T03:19:21;41.42;;;38.00;;
52102;SDS011;38101;53.126;6.878;2022-10-17T03:21:46;38.30;;;34.88;;
52102;SDS011;38101;53.126;6.878;2022-10-17T03:24:12;35.00;;;32.10;;
52102;SDS011;38101;53.126;6.878;2022-10-17T03:26:38;44.65;;;41.15;;
52102;SDS011;38101;53.126;6.878;2022-10-17T03:29:03;37.67;;;34.40;;
52102;SDS011;38101;53.126;6.878;2022-10-17T03:31:29;30.00;;;27.42;;
52102;SDS011;38101;53.126;6.878;2022-10-17T03:33:55;29.27;;;26.70;;
52102;SDS011;38101;53.126;6.878;2022-10-17T03:36:21;33.65;;;30.77;;
52102;SDS011;38101;53.126;6.878;2022-10-17T03:38:46;35.78;;;33.05;;
52102;SDS011;38101;53.126;6.878;2022-10-17T03:41:12;36.50;;;33.50;;
52102;SDS011;38101;53.126;6.878;2022-10-17T03:43:38;34.72;;;31.73;;
52102;SDS011;38101;53.126;6.878;2022-10-17T03:46:04;25.08;;;23.20;;
52102;SDS011;38101;53.126;6.878;2022-10-17T03:48:30;24.42;;;22.52;;
52102;SDS011;38101;53.126;6.878;2022-10-17T03:51:04;20.85;;;19.05;;
52102;SDS011;38101;53.126;6.878;2022-10-17T03:53:31;33.45;;;30.90;;
52102;SDS011;38101;53.126;6.878;2022-10-17T03:56:07;26.42;;;24.33;;
52102;SDS011;38101;53.126;6.878;2022-10-17T03:58:36;26.08;;;24.00;;
52102;SDS011;38101;53.126;6.878;2022-10-17T04:01:05;25.50;;;23.50;;
52102;SDS011;38101;53.126;6.878;2022-10-17T04:03:32;15.90;;;14.63;;
52102;SDS011;38101;53.126;6.878;2022-10-17T04:05:58;13.70;;;11.45;;
52102;SDS011;38101;53.126;6.878;2022-10-17T04:08:25;10.25;;;9.20;;
52102;SDS011;38101;53.126;6.878;2022-10-17T04:10:51;9.00;;;7.55;;
52102;SDS011;38101;53.126;6.878;2022-10-17T04:13:16;7.75;;;6.68;;
52102;SDS011;38101;53.126;6.878;2022-10-17T04:15:52;8.60;;;7.03;;
52102;SDS011;38101;53.126;6.878;2022-10-17T04:18:22;8.75;;;6.72;;
52102;SDS011;38101;53.126;6.878;2022-10-17T04:20:47;8.48;;;7.15;;
52102;SDS011;38101;53.126;6.878;2022-10-17T04:23:13;9.93;;;6.65;;
52102;SDS011;38101;53.126;6.878;2022-10-17T04:25:39;7.60;;;6.78;;
52102;SDS011;38101;53.126;6.878;2022-10-17T04:28:05;8.80;;;7.28;;
52102;SDS011;38101;53.126;6.878;2022-10-17T04:30:31;9.15;;;7.80;;
52102;SDS011;38101;53.126;6.878;2022-10-17T04:32:56;8.27;;;7.45;;
52102;SDS011;38101;53.126;6.878;2022-10-17T04:35:22;8.23;;;7.28;;
52102;SDS011;38101;53.126;6.878;2022-10-17T04:37:48;7.75;;;6.93;;
52102;SDS011;38101;53.126;6.878;2022-10-17T04:40:14;9.95;;;7.60;;
52102;SDS011;38101;53.126;6.878;2022-10-17T04:42:39;8.70;;;7.10;;
52102;SDS011;38101;53.126;6.878;2022-10-17T04:45:05;9.50;;;7.60;;
52102;SDS011;38101;53.126;6.878;2022-10-17T04:47:31;9.75;;;8.02;;
52102;SDS011;38101;53.126;6.878;2022-10-17T04:49:57;9.02;;;7.30;;
52102;SDS011;38101;53.126;6.878;2022-10-17T04:52:23;8.40;;;7.45;;
52102;SDS011;38101;53.126;6.878;2022-10-17T04:54:50;8.88;;;7.43;;
52102;SDS011;38101;53.126;6.878;2022-10-17T04:57:16;8.63;;;7.05;;
52102;SDS011;38101;53.126;6.878;2022-10-17T04:59:42;9.35;;;8.05;;
52102;SDS011;38101;53.126;6.878;2022-10-17T05:02:08;10.25;;;8.48;;
52102;SDS011;38101;53.126;6.878;2022-10-17T05:04:34;9.80;;;8.13;;
52102;SDS011;38101;53.126;6.878;2022-10-17T05:07:00;8.82;;;7.95;;
52102;SDS011;38101;53.126;6.878;2022-10-17T05:09:26;9.50;;;8.23;;
52102;SDS011;38101;53.126;6.878;2022-10-17T05:11:51;11.70;;;8.63;;
52102;SDS011;38101;53.126;6.878;2022-10-17T05:14:17;10.63;;;8.25;;
52102;SDS011;38101;53.126;6.878;2022-10-17T05:16:43;9.68;;;8.27;;
52102;SDS011;38101;53.126;6.878;2022-10-17T05:19:09;9.95;;;8.02;;
52102;SDS011;38101;53.126;6.878;2022-10-17T05:21:35;10.38;;;8.38;;
52102;SDS011;38101;53.126;6.878;2022-10-17T05:24:03;8.93;;;7.97;;
52102;SDS011;38101;53.126;6.878;2022-10-17T05:26:33;10.82;;;8.57;;
52102;SDS011;38101;53.126;6.878;2022-10-17T05:28:59;11.95;;;9.05;;
52102;SDS011;38101;53.126;6.878;2022-10-17T05:31:29;11.30;;;9.18;;
52102;SDS011;38101;53.126;6.878;2022-10-17T05:33:59;11.48;;;7.95;;
52102;SDS011;38101;53.126;6.878;2022-10-17T05:36:26;10.32;;;9.07;;
52102;SDS011;38101;53.126;6.878;2022-10-17T05:38:52;9.68;;;8.00;;
52102;SDS011;38101;53.126;6.878;2022-10-17T05:41:18;11.27;;;8.95;;
52102;SDS011;38101;53.126;6.878;2022-10-17T05:43:44;12.25;;;9.38;;
52102;SDS011;38101;53.126;6.878;2022-10-17T05:46:10;11.48;;;9.15;;
52102;SDS011;38101;53.126;6.878;2022-10-17T05:48:36;12.15;;;10.00;;
52102;SDS011;38101;53.126;6.878;2022-10-17T05:51:03;11.57;;;9.48;;
52102;SDS011;38101;53.126;6.878;2022-10-17T05:53:31;12.32;;;9.65;;
52102;SDS011;38101;53.126;6.878;2022-10-17T05:55:59;11.32;;;9.52;;
52102;SDS011;38101;53.126;6.878;2022-10-17T05:58:26;12.55;;;9.43;;
52102;SDS011;38101;53.126;6.878;2022-10-17T06:00:56;12.65;;;10.10;;
52102;SDS011;38101;53.126;6.878;2022-10-17T06:05:52;12.95;;;9.35;;
52102;SDS011;38101;53.126;6.878;2022-10-17T06:08:18;10.30;;;9.30;;
52102;SDS011;38101;53.126;6.878;2022-10-17T06:10:48;11.48;;;9.98;;
52102;SDS011;38101;53.126;6.878;2022-10-17T06:13:15;13.13;;;10.00;;
52102;SDS011;38101;53.126;6.878;2022-10-17T06:15:44;13.25;;;10.50;;
52102;SDS011;38101;53.126;6.878;2022-10-17T06:18:10;13.55;;;9.55;;
52102;SDS011;38101;53.126;6.878;2022-10-17T06:20:36;12.85;;;10.68;;
52102;SDS011;38101;53.126;6.878;2022-10-17T06:23:02;13.48;;;10.27;;
52102;SDS011;38101;53.126;6.878;2022-10-17T06:25:31;14.77;;;10.52;;
52102;SDS011;38101;53.126;6.878;2022-10-17T06:27:57;13.88;;;10.90;;
52102;SDS011;38101;53.126;6.878;2022-10-17T06:30:23;13.00;;;10.63;;
52102;SDS011;38101;53.126;6.878;2022-10-17T06:32:50;11.90;;;10.70;;
52102;SDS011;38101;53.126;6.878;2022-10-17T06:35:16;12.00;;;10.68;;
52102;SDS011;38101;53.126;6.878;2022-10-17T06:37:42;13.13;;;10.10;;
52102;SDS011;38101;53.126;6.878;2022-10-17T06:40:08;13.07;;;11.15;;
52102;SDS011;38101;53.126;6.878;2022-10-17T06:42:36;13.63;;;10.70;;
52102;SDS011;38101;53.126;6.878;2022-10-17T06:45:02;13.57;;;11.05;;
52102;SDS011;38101;53.126;6.878;2022-10-17T06:47:29;16.05;;;11.35;;
52102;SDS011;38101;53.126;6.878;2022-10-17T06:49:55;13.75;;;10.68;;
52102;SDS011;38101;53.126;6.878;2022-10-17T06:52:21;12.55;;;10.85;;
52102;SDS011;38101;53.126;6.878;2022-10-17T06:54:47;14.70;;;11.63;;
52102;SDS011;38101;53.126;6.878;2022-10-17T06:57:12;14.35;;;11.23;;
52102;SDS011;38101;53.126;6.878;2022-10-17T06:59:38;14.45;;;11.70;;
52102;SDS011;38101;53.126;6.878;2022-10-17T07:02:04;15.20;;;11.57;;
52102;SDS011;38101;53.126;6.878;2022-10-17T07:04:30;14.23;;;11.57;;
52102;SDS011;38101;53.126;6.878;2022-10-17T07:06:56;14.35;;;10.73;;
52102;SDS011;38101;53.126;6.878;2022-10-17T07:09:22;13.65;;;10.80;;
52102;SDS011;38101;53.126;6.878;2022-10-17T07:11:48;13.25;;;11.25;;
52102;SDS011;38101;53.126;6.878;2022-10-17T07:14:14;12.90;;;10.50;;
52102;SDS011;38101;53.126;6.878;2022-10-17T07:16:39;16.27;;;11.38;;
52102;SDS011;38101;53.126;6.878;2022-10-17T07:19:05;13.88;;;10.70;;
52102;SDS011;38101;53.126;6.878;2022-10-17T07:21:31;13.60;;;11.02;;
52102;SDS011;38101;53.126;6.878;2022-10-17T07:23:57;13.27;;;11.55;;
52102;SDS011;38101;53.126;6.878;2022-10-17T07:26:22;12.52;;;10.85;;
52102;SDS011;38101;53.126;6.878;2022-10-17T07:28:50;13.85;;;10.77;;
52102;SDS011;38101;53.126;6.878;2022-10-17T07:31:17;12.38;;;10.52;;
52102;SDS011;38101;53.126;6.878;2022-10-17T07:33:44;15.65;;;11.65;;
52102;SDS011;38101;53.126;6.878;2022-10-17T07:36:10;14.85;;;11.02;;
52102;SDS011;38101;53.126;6.878;2022-10-17T07:38:36;14.50;;;11.27;;
52102;SDS011;38101;53.126;6.878;2022-10-17T07:41:04;11.95;;;9.70;;
52102;SDS011;38101;53.126;6.878;2022-10-17T07:43:31;14.32;;;10.57;;
52102;SDS011;38101;53.126;6.878;2022-10-17T07:45:59;15.88;;;10.70;;
52102;SDS011;38101;53.126;6.878;2022-10-17T07:48:25;14.02;;;10.57;;
52102;SDS011;38101;53.126;6.878;2022-10-17T07:50:51;11.57;;;9.82;;
52102;SDS011;38101;53.126;6.878;2022-10-17T07:53:17;14.05;;;10.35;;
52102;SDS011;38101;53.126;6.878;2022-10-17T07:55:43;15.30;;;10.55;;
52102;SDS011;38101;53.126;6.878;2022-10-17T07:58:10;16.88;;;10.32;;
52102;SDS011;38101;53.126;6.878;2022-10-17T08:00:36;13.05;;;10.23;;
52102;SDS011;38101;53.126;6.878;2022-10-17T08:03:03;14.45;;;10.82;;
52102;SDS011;38101;53.126;6.878;2022-10-17T08:05:29;15.18;;;9.85;;
52102;SDS011;38101;53.126;6.878;2022-10-17T08:07:55;12.00;;;9.30;;
52102;SDS011;38101;53.126;6.878;2022-10-17T08:10:21;13.25;;;9.95;;
52102;SDS011;38101;53.126;6.878;2022-10-17T08:12:55;12.70;;;9.40;;
52102;SDS011;38101;53.126;6.878;2022-10-17T08:15:21;14.18;;;10.50;;
52102;SDS011;38101;53.126;6.878;2022-10-17T08:17:48;12.88;;;10.00;;
52102;SDS011;38101;53.126;6.878;2022-10-17T08:20:14;12.32;;;9.45;;
52102;SDS011;38101;53.126;6.878;2022-10-17T08:22:40;13.02;;;9.75;;
52102;SDS011;38101;53.126;6.878;2022-10-17T08:25:06;12.23;;;9.75;;
52102;SDS011;38101;53.126;6.878;2022-10-17T08:27:33;10.70;;;9.18;;
52102;SDS011;38101;53.126;6.878;2022-10-17T08:29:59;12.52;;;9.30;;
52102;SDS011;38101;53.126;6.878;2022-10-17T08:32:25;14.05;;;9.60;;
52102;SDS011;38101;53.126;6.878;2022-10-17T08:34:53;11.63;;;9.45;;
52102;SDS011;38101;53.126;6.878;2022-10-17T08:37:20;11.52;;;9.63;;
52102;SDS011;38101;53.126;6.878;2022-10-17T08:39:46;13.13;;;9.70;;
52102;SDS011;38101;53.126;6.878;2022-10-17T08:42:20;13.27;;;9.25;;
52102;SDS011;38101;53.126;6.878;2022-10-17T08:48:00;13.15;;;9.15;;
52102;SDS011;38101;53.126;6.878;2022-10-17T08:55:39;12.77;;;9.18;;
52102;SDS011;38101;53.126;6.878;2022-10-17T09:04:05;12.43;;;9.00;;
52102;SDS011;38101;53.126;6.878;2022-10-17T09:07:35;13.18;;;8.77;;
52102;SDS011;38101;53.126;6.878;2022-10-17T09:09:48;11.40;;;8.70;;
52102;SDS011;38101;53.126;6.878;2022-10-17T09:16:08;12.82;;;8.88;;
52102;SDS011;38101;53.126;6.878;2022-10-17T09:18:44;11.52;;;8.38;;
52102;SDS011;38101;53.126;6.878;2022-10-17T09:21:31;12.38;;;9.05;;
52102;SDS011;38101;53.126;6.878;2022-10-17T09:24:09;13.43;;;8.32;;
52102;SDS011;38101;53.126;6.878;2022-10-17T09:26:43;10.70;;;8.25;;
52102;SDS011;38101;53.126;6.878;2022-10-17T09:29:14;10.70;;;8.52;;
52102;SDS011;38101;53.126;6.878;2022-10-17T09:32:14;11.23;;;8.73;;
52102;SDS011;38101;53.126;6.878;2022-10-17T09:34:43;11.38;;;8.40;;
52102;SDS011;38101;53.126;6.878;2022-10-17T09:37:10;12.30;;;8.13;;
52102;SDS011;38101;53.126;6.878;2022-10-17T09:39:38;11.15;;;8.88;;
52102;SDS011;38101;53.126;6.878;2022-10-17T09:42:05;10.05;;;8.07;;
52102;SDS011;38101;53.126;6.878;2022-10-17T09:44:46;10.48;;;8.15;;
52102;SDS011;38101;53.126;6.878;2022-10-17T09:47:28;11.73;;;8.23;;
52102;SDS011;38101;53.126;6.878;2022-10-17T09:49:58;11.88;;;8.63;;
52102;SDS011;38101;53.126;6.878;2022-10-17T09:52:32;10.45;;;8.30;;
52102;SDS011;38101;53.126;6.878;2022-10-17T09:55:02;12.10;;;8.63;;
52102;SDS011;38101;53.126;6.878;2022-10-17T09:57:55;12.10;;;9.15;;
52102;SDS011;38101;53.126;6.878;2022-10-17T10:00:24;12.85;;;8.57;;
52102;SDS011;38101;53.126;6.878;2022-10-17T10:03:08;13.48;;;9.27;;
52102;SDS011;38101;53.126;6.878;2022-10-17T10:05:37;11.43;;;8.55;;
52102;SDS011;38101;53.126;6.878;2022-10-17T10:08:25;12.70;;;8.88;;
52102;SDS011;38101;53.126;6.878;2022-10-17T10:10:56;12.98;;;9.00;;
52102;SDS011;38101;53.126;6.878;2022-10-17T10:13:33;12.55;;;9.13;;
52102;SDS011;38101;53.126;6.878;2022-10-17T10:16:16;13.02;;;9.40;;
52102;SDS011;38101;53.126;6.878;2022-10-17T10:18:48;12.18;;;8.95;;
52102;SDS011;38101;53.126;6.878;2022-10-17T10:21:16;17.30;;;9.23;;
52102;SDS011;38101;53.126;6.878;2022-10-17T10:26:38;14.65;;;9.43;;
52102;SDS011;38101;53.126;6.878;2022-10-17T10:29:05;13.13;;;10.10;;
52102;SDS011;38101;53.126;6.878;2022-10-17T10:34:57;13.95;;;9.45;;
52102;SDS011;38101;53.126;6.878;2022-10-17T10:37:40;13.48;;;10.63;;
52102;SDS011;38101;53.126;6.878;2022-10-17T10:40:30;11.73;;;9.85;;
52102;SDS011;38101;53.126;6.878;2022-10-17T10:43:01;12.30;;;10.45;;
52102;SDS011;38101;53.126;6.878;2022-10-17T10:48:01;14.85;;;10.70;;
52102;SDS011;38101;53.126;6.878;2022-10-17T10:50:44;16.67;;;10.30;;
52102;SDS011;38101;53.126;6.878;2022-10-17T10:53:30;13.75;;;10.07;;
52102;SDS011;38101;53.126;6.878;2022-10-17T11:01:21;14.13;;;10.68;;
52102;SDS011;38101;53.126;6.878;2022-10-17T11:04:25;14.52;;;11.10;;
52102;SDS011;38101;53.126;6.878;2022-10-17T11:06:52;14.93;;;11.05;;
52102;SDS011;38101;53.126;6.878;2022-10-17T11:09:28;13.57;;;10.20;;
52102;SDS011;38101;53.126;6.878;2022-10-17T11:12:31;14.10;;;9.85;;
52102;SDS011;38101;53.126;6.878;2022-10-17T11:15:08;14.73;;;9.88;;
52102;SDS011;38101;53.126;6.878;2022-10-17T11:17:52;12.57;;;10.43;;
52102;SDS011;38101;53.126;6.878;2022-10-17T11:20:46;10.48;;;9.32;;
52102;SDS011;38101;53.126;6.878;2022-10-17T11:26:48;16.85;;;10.15;;
52102;SDS011;38101;53.126;6.878;2022-10-17T11:29:19;12.10;;;9.48;;
52102;SDS011;38101;53.126;6.878;2022-10-17T11:31:49;14.80;;;11.13;;
52102;SDS011;38101;53.126;6.878;2022-10-17T11:34:19;14.05;;;10.95;;
52102;SDS011;38101;53.126;6.878;2022-10-17T11:36:52;13.35;;;10.98;;
52102;SDS011;38101;53.126;6.878;2022-10-17T11:39:29;13.93;;;10.40;;
52102;SDS011;38101;53.126;6.878;2022-10-17T11:42:11;14.40;;;11.00;;
52102;SDS011;38101;53.126;6.878;2022-10-17T11:45:00;13.77;;;10.45;;
52102;SDS011;38101;53.126;6.878;2022-10-17T11:47:37;13.45;;;10.38;;
52102;SDS011;38101;53.126;6.878;2022-10-17T11:52:51;15.95;;;11.18;;
52102;SDS011;38101;53.126;6.878;2022-10-17T11:55:40;14.23;;;11.75;;
52102;SDS011;38101;53.126;6.878;2022-10-17T12:03:57;16.75;;;11.65;;
52102;SDS011;38101;53.126;6.878;2022-10-17T12:06:47;13.57;;;9.90;;
52102;SDS011;38101;53.126;6.878;2022-10-17T12:09:33;13.07;;;10.48;;
52102;SDS011;38101;53.126;6.878;2022-10-17T12:12:10;12.93;;;9.88;;
52102;SDS011;38101;53.126;6.878;2022-10-17T12:14:49;11.90;;;10.23;;
52102;SDS011;38101;53.126;6.878;2022-10-17T12:19:51;14.52;;;10.20;;
52102;SDS011;38101;53.126;6.878;2022-10-17T12:22:21;14.40;;;10.48;;
52102;SDS011;38101;53.126;6.878;2022-10-17T12:24:59;12.15;;;9.88;;
52102;SDS011;38101;53.126;6.878;2022-10-17T12:27:34;11.45;;;8.95;;
52102;SDS011;38101;53.126;6.878;2022-10-17T12:30:24;12.73;;;8.85;;
52102;SDS011;38101;53.126;6.878;2022-10-17T12:32:57;9.73;;;8.25;;
52102;SDS011;38101;53.126;6.878;2022-10-17T12:35:30;11.18;;;8.57;;
52102;SDS011;38101;53.126;6.878;2022-10-17T12:38:02;10.95;;;7.43;;
52102;SDS011;38101;53.126;6.878;2022-10-17T12:43:31;9.45;;;7.70;;
52102;SDS011;38101;53.126;6.878;2022-10-17T12:45:58;9.50;;;7.18;;
52102;SDS011;38101;53.126;6.878;2022-10-17T12:51:18;11.05;;;7.45;;
52102;SDS011;38101;53.126;6.878;2022-10-17T12:56:46;9.70;;;7.75;;
52102;SDS011;38101;53.126;6.878;2022-10-17T12:59:19;10.00;;;7.35;;
52102;SDS011;38101;53.126;6.878;2022-10-17T13:01:49;8.68;;;7.25;;
52102;SDS011;38101;53.126;6.878;2022-10-17T13:04:17;8.77;;;7.32;;
52102;SDS011;38101;53.126;6.878;2022-10-17T13:06:51;8.18;;;7.32;;
52102;SDS011;38101;53.126;6.878;2022-10-17T13:09:31;9.35;;;7.22;;
52102;SDS011;38101;53.126;6.878;2022-10-17T13:12:01;8.80;;;7.47;;
52102;SDS011;38101;53.126;6.878;2022-10-17T13:14:29;8.73;;;7.55;;
52102;SDS011;38101;53.126;6.878;2022-10-17T13:17:00;10.93;;;8.25;;
52102;SDS011;38101;53.126;6.878;2022-10-17T13:19:38;9.88;;;7.90;;
52102;SDS011;38101;53.126;6.878;2022-10-17T13:22:10;8.38;;;7.25;;
52102;SDS011;38101;53.126;6.878;2022-10-17T13:25:07;7.45;;;6.13;;
52102;SDS011;38101;53.126;6.878;2022-10-17T13:27:38;7.47;;;4.85;;
52102;SDS011;38101;53.126;6.878;2022-10-17T13:30:20;5.30;;;4.45;;
52102;SDS011;38101;53.126;6.878;2022-10-17T13:32:53;5.68;;;4.10;;
52102;SDS011;38101;53.126;6.878;2022-10-17T13:37:56;6.55;;;3.70;;
52102;SDS011;38101;53.126;6.878;2022-10-17T13:40:25;4.82;;;4.00;;
52102;SDS011;38101;53.126;6.878;2022-10-17T13:42:54;6.85;;;3.95;;
52102;SDS011;38101;53.126;6.878;2022-10-17T13:45:26;6.47;;;3.80;;
52102;SDS011;38101;53.126;6.878;2022-10-17T13:47:53;4.90;;;4.03;;
52102;SDS011;38101;53.126;6.878;2022-10-17T13:50:24;6.30;;;4.28;;
52102;SDS011;38101;53.126;6.878;2022-10-17T13:55:33;5.25;;;4.10;;
52102;SDS011;38101;53.126;6.878;2022-10-17T13:58:09;7.53;;;4.35;;
52102;SDS011;38101;53.126;6.878;2022-10-17T14:00:39;7.65;;;4.22;;
52102;SDS011;38101;53.126;6.878;2022-10-17T14:03:05;8.25;;;4.45;;
52102;SDS011;38101;53.126;6.878;2022-10-17T14:05:31;5.70;;;4.32;;
52102;SDS011;38101;53.126;6.878;2022-10-17T14:07:58;7.50;;;4.72;;
52102;SDS011;38101;53.126;6.878;2022-10-17T14:10:34;6.85;;;4.70;;
52102;SDS011;38101;53.126;6.878;2022-10-17T14:13:02;6.30;;;5.50;;
52102;SDS011;38101;53.126;6.878;2022-10-17T14:15:31;6.55;;;4.80;;
52102;SDS011;38101;53.126;6.878;2022-10-17T14:18:01;6.60;;;4.72;;
52102;SDS011;38101;53.126;6.878;2022-10-17T14:20:29;7.50;;;5.53;;
52102;SDS011;38101;53.126;6.878;2022-10-17T14:22:55;7.47;;;4.35;;
52102;SDS011;38101;53.126;6.878;2022-10-17T14:25:33;6.90;;;4.30;;
52102;SDS011;38101;53.126;6.878;2022-10-17T14:30:46;6.63;;;4.38;;
52102;SDS011;38101;53.126;6.878;2022-10-17T14:33:23;6.97;;;3.75;;
52102;SDS011;38101;53.126;6.878;2022-10-17T14:35:55;5.25;;;3.50;;
52102;SDS011;38101;53.126;6.878;2022-10-17T14:38:22;4.53;;;3.17;;
52102;SDS011;38101;53.126;6.878;2022-10-17T14:40:57;5.85;;;3.70;;
52102;SDS011;38101;53.126;6.878;2022-10-17T14:43:29;6.85;;;3.97;;
52102;SDS011;38101;53.126;6.878;2022-10-17T14:45:56;5.15;;;3.20;;
52102;SDS011;38101;53.126;6.878;2022-10-17T14:48:23;6.15;;;3.28;;
52102;SDS011;38101;53.126;6.878;2022-10-17T14:53:37;4.15;;;3.10;;
52102;SDS011;38101;53.126;6.878;2022-10-17T14:56:25;4.97;;;3.03;;
52102;SDS011;38101;53.126;6.878;2022-10-17T14:58:51;4.15;;;3.42;;
52102;SDS011;38101;53.126;6.878;2022-10-17T15:01:17;5.70;;;3.20;;
52102;SDS011;38101;53.126;6.878;2022-10-17T15:03:43;6.63;;;3.33;;
52102;SDS011;38101;53.126;6.878;2022-10-17T15:06:19;5.03;;;3.00;;
52102;SDS011;38101;53.126;6.878;2022-10-17T15:08:46;5.20;;;2.92;;
52102;SDS011;38101;53.126;6.878;2022-10-17T15:11:12;6.80;;;3.10;;
52102;SDS011;38101;53.126;6.878;2022-10-17T15:13:38;4.25;;;3.10;;
52102;SDS011;38101;53.126;6.878;2022-10-17T15:16:21;4.40;;;3.22;;
52102;SDS011;38101;53.126;6.878;2022-10-17T15:18:52;5.75;;;3.28;;
52102;SDS011;38101;53.126;6.878;2022-10-17T15:21:19;5.43;;;3.15;;
52102;SDS011;38101;53.126;6.878;2022-10-17T15:23:46;5.07;;;3.28;;
52102;SDS011;38101;53.126;6.878;2022-10-17T15:26:13;6.25;;;3.05;;
52102;SDS011;38101;53.126;6.878;2022-10-17T15:28:43;5.38;;;3.40;;
52102;SDS011;38101;53.126;6.878;2022-10-17T15:31:10;4.32;;;3.22;;
52102;SDS011;38101;53.126;6.878;2022-10-17T15:33:36;4.80;;;3.50;;
52102;SDS011;38101;53.126;6.878;2022-10-17T15:36:02;5.70;;;3.95;;
52102;SDS011;38101;53.126;6.878;2022-10-17T15:38:28;7.00;;;3.85;;
52102;SDS011;38101;53.126;6.878;2022-10-17T15:40:54;6.95;;;3.40;;
52102;SDS011;38101;53.126;6.878;2022-10-17T15:43:20;4.63;;;3.30;;
52102;SDS011;38101;53.126;6.878;2022-10-17T15:45:45;4.20;;;3.30;;
52102;SDS011;38101;53.126;6.878;2022-10-17T15:48:17;5.50;;;3.60;;
52102;SDS011;38101;53.126;6.878;2022-10-17T15:50:45;6.75;;;3.30;;
52102;SDS011;38101;53.126;6.878;2022-10-17T15:53:11;5.72;;;3.40;;
52102;SDS011;38101;53.126;6.878;2022-10-17T15:55:37;4.63;;;3.60;;
52102;SDS011;38101;53.126;6.878;2022-10-17T15:58:03;6.25;;;3.80;;
52102;SDS011;38101;53.126;6.878;2022-10-17T16:00:28;6.10;;;3.45;;
52102;SDS011;38101;53.126;6.878;2022-10-17T16:02:54;5.85;;;3.22;;
52102;SDS011;38101;53.126;6.878;2022-10-17T16:05:20;5.00;;;3.13;;
52102;SDS011;38101;53.126;6.878;2022-10-17T16:07:49;5.43;;;3.05;;
52102;SDS011;38101;53.126;6.878;2022-10-17T16:10:16;5.45;;;3.17;;
52102;SDS011;38101;53.126;6.878;2022-10-17T16:12:42;4.75;;;2.83;;
52102;SDS011;38101;53.126;6.878;2022-10-17T16:15:13;4.72;;;2.80;;
52102;SDS011;38101;53.126;6.878;2022-10-17T16:17:44;5.80;;;3.20;;
52102;SDS011;38101;53.126;6.878;2022-10-17T16:20:10;6.55;;;3.38;;
52102;SDS011;38101;53.126;6.878;2022-10-17T16:22:37;5.30;;;3.20;;
52102;SDS011;38101;53.126;6.878;2022-10-17T16:25:05;6.35;;;3.28;;
52102;SDS011;38101;53.126;6.878;2022-10-17T16:27:35;5.93;;;3.28;;
52102;SDS011;38101;53.126;6.878;2022-10-17T16:30:02;5.30;;;3.50;;
52102;SDS011;38101;53.126;6.878;2022-10-17T16:32:30;7.03;;;3.30;;